createdAt,value
2022-08-05T00:01:01.027Z,1.20
2022-08-05T00:02:07.634Z,1.60
2022-08-05T00:02:59.178Z,1.60
2022-08-05T00:03:58.188Z,1.30
2022-08-05T00:04:58.147Z,1.40
2022-08-05T00:06:04.859Z,1.50
2022-08-05T00:06:59.119Z,1.50
2022-08-05T00:08:00.878Z,1.70
2022-08-05T00:08:58.130Z,1.50
2022-08-05T00:09:58.089Z,1.40
2022-08-05T00:11:00.804Z,1.40
2022-08-05T00:12:00.007Z,1.50
2022-08-05T00:12:58.047Z,1.80
2022-08-05T00:13:58.037Z,1.40
2022-08-05T00:14:58.040Z,1.60
2022-08-05T00:16:00.416Z,1.80
2022-08-05T00:16:58.003Z,1.60
2022-08-05T00:17:57.997Z,1.30
2022-08-05T00:18:57.957Z,1.60
2022-08-05T00:20:02.418Z,1.50
2022-08-05T00:20:58.936Z,1.50
2022-08-05T00:21:57.940Z,1.70
2022-08-05T00:23:02.324Z,1.30
2022-08-05T00:24:10.478Z,1.70
2022-08-05T00:24:58.901Z,1.70
2022-08-05T00:25:57.878Z,1.60
2022-08-05T00:26:58.574Z,1.60
2022-08-05T00:27:57.858Z,1.60
2022-08-05T00:28:57.840Z,1.60
2022-08-05T00:29:57.837Z,1.60
2022-08-05T00:30:57.805Z,1.70
2022-08-05T00:32:12.810Z,1.40
2022-08-05T00:32:58.798Z,1.40
2022-08-05T00:34:53.412Z,1.60
2022-08-05T00:35:06.749Z,1.70
2022-08-05T00:36:16.095Z,1.70
2022-08-05T00:37:13.074Z,1.60
2022-08-05T00:37:58.716Z,1.50
2022-08-05T00:38:57.707Z,1.60
2022-08-05T00:39:58.992Z,1.50
2022-08-05T00:40:57.677Z,1.80
2022-08-05T00:41:57.666Z,1.60
2022-08-05T00:42:57.647Z,1.70
2022-08-05T00:43:57.646Z,1.60
2022-08-05T00:44:57.626Z,1.80
2022-08-05T00:45:57.626Z,1.70
2022-08-05T00:47:02.176Z,1.80
2022-08-05T00:48:06.025Z,1.70
2022-08-05T00:48:58.572Z,1.60
2022-08-05T00:49:57.564Z,1.70
2022-08-05T00:50:57.554Z,1.70
2022-08-05T00:51:57.548Z,1.70
2022-08-05T00:52:57.524Z,1.40
2022-08-05T00:54:02.248Z,1.60
2022-08-05T00:54:58.484Z,1.50
2022-08-05T00:55:57.494Z,1.60
2022-08-05T00:56:57.479Z,1.70
2022-08-05T00:57:58.896Z,1.70
2022-08-05T00:58:57.433Z,1.60
2022-08-05T00:59:57.445Z,2.10
2022-08-05T01:00:57.530Z,1.70
2022-08-05T01:01:57.431Z,1.70
2022-08-05T01:02:57.383Z,1.70
2022-08-05T01:03:57.385Z,1.50
2022-08-05T01:04:57.356Z,1.80
2022-08-05T01:05:57.364Z,1.60
2022-08-05T01:06:57.334Z,1.50
2022-08-05T01:08:41.465Z,1.50
2022-08-05T01:08:58.304Z,1.50
2022-08-05T01:09:57.294Z,1.40
2022-08-05T01:10:57.950Z,1.60
2022-08-05T01:11:59.756Z,1.70
2022-08-05T01:13:12.797Z,1.70
2022-08-05T01:13:59.783Z,1.80
2022-08-05T01:14:57.238Z,1.60
2022-08-05T01:15:57.222Z,2.10
2022-08-05T01:16:57.221Z,1.90
2022-08-05T01:17:57.203Z,1.50
2022-08-05T01:18:57.184Z,1.60
2022-08-05T01:20:01.823Z,1.80
2022-08-05T01:20:58.154Z,2.00
2022-08-05T01:21:57.153Z,2.00
2022-08-05T01:22:57.423Z,1.90
2022-08-05T01:23:57.103Z,1.80
2022-08-05T01:24:57.111Z,1.70
2022-08-05T01:25:57.085Z,2.00
2022-08-05T01:26:57.092Z,2.00
2022-08-05T01:27:57.062Z,2.00
2022-08-05T01:28:57.052Z,2.70
2022-08-05T01:29:58.033Z,1.70
2022-08-05T01:30:57.020Z,1.60
2022-08-05T01:31:57.022Z,2.00
2022-08-05T01:32:56.992Z,1.70
2022-08-05T01:33:56.982Z,2.00
2022-08-05T01:34:56.965Z,2.00
2022-08-05T01:35:57.525Z,1.80
2022-08-05T01:36:56.951Z,1.90
2022-08-05T01:37:56.942Z,1.90
2022-08-05T01:39:00.363Z,2.10
2022-08-05T01:39:58.999Z,1.80
2022-08-05T01:40:56.892Z,2.00
2022-08-05T01:41:56.893Z,1.80
2022-08-05T01:42:56.881Z,1.90
2022-08-05T01:43:56.851Z,2.10
2022-08-05T01:44:56.852Z,1.70
2022-08-05T01:45:57.189Z,2.10
2022-08-05T01:46:56.811Z,2.00
2022-08-05T01:47:56.801Z,1.60
2022-08-05T01:48:56.791Z,1.80
2022-08-05T01:50:02.107Z,1.60
2022-08-05T01:50:57.761Z,1.70
2022-08-05T01:51:56.758Z,1.90
2022-08-05T01:52:56.751Z,1.80
2022-08-05T01:53:58.827Z,1.60
2022-08-05T01:54:56.711Z,1.60
2022-08-05T01:55:56.690Z,1.50
2022-08-05T01:58:11.544Z,1.50
2022-08-05T01:58:18.883Z,1.60
2022-08-05T01:58:57.660Z,1.70
2022-08-05T01:59:56.643Z,1.70
2022-08-05T02:00:56.629Z,1.80
2022-08-05T02:01:56.673Z,1.60
2022-08-05T02:02:56.610Z,1.60
2022-08-05T02:03:56.599Z,1.90
2022-08-05T02:04:56.579Z,1.60
2022-08-05T02:05:59.741Z,1.90
2022-08-05T02:06:56.559Z,1.70
2022-08-05T02:07:59.896Z,2.10
2022-08-05T02:08:58.755Z,1.70
2022-08-05T02:09:56.509Z,1.90
2022-08-05T02:10:56.510Z,2.00
2022-08-05T02:11:56.509Z,1.70
2022-08-05T02:12:56.479Z,1.60
2022-08-05T02:13:56.470Z,1.60
2022-08-05T02:14:56.449Z,1.70
2022-08-05T02:15:56.437Z,1.70
2022-08-05T02:16:56.419Z,1.70
2022-08-05T02:18:31.379Z,1.60
2022-08-05T02:18:57.419Z,1.90
2022-08-05T02:19:56.378Z,1.70
2022-08-05T02:20:58.850Z,1.80
2022-08-05T02:21:56.349Z,1.50
2022-08-05T02:22:56.341Z,1.70
2022-08-05T02:23:56.329Z,1.70
2022-08-05T02:24:56.331Z,1.90
2022-08-05T02:25:56.297Z,1.70
2022-08-05T02:26:56.287Z,1.50
2022-08-05T02:27:59.113Z,2.00
2022-08-05T02:28:56.276Z,1.70
2022-08-05T02:29:59.022Z,1.40
2022-08-05T02:30:56.692Z,1.90
2022-08-05T02:31:56.244Z,2.00
2022-08-05T02:32:56.219Z,1.90
2022-08-05T02:33:57.481Z,1.50
2022-08-05T02:34:56.277Z,2.10
2022-08-05T02:35:59.138Z,1.90
2022-08-05T02:36:57.159Z,1.60
2022-08-05T02:37:56.149Z,1.80
2022-08-05T02:38:56.149Z,1.60
2022-08-05T02:39:56.125Z,1.90
2022-08-05T02:40:56.116Z,2.10
2022-08-05T02:42:01.009Z,1.70
2022-08-05T02:42:57.077Z,1.70
2022-08-05T02:44:02.317Z,1.80
2022-08-05T02:44:57.057Z,1.90
2022-08-05T02:45:56.055Z,1.80
2022-08-05T02:46:59.736Z,2.10
2022-08-05T02:48:06.729Z,2.00
2022-08-05T02:48:57.006Z,2.00
2022-08-05T02:49:55.996Z,1.90
2022-08-05T02:50:55.996Z,1.80
2022-08-05T02:52:03.122Z,1.80
2022-08-05T02:52:56.955Z,2.00
2022-08-05T02:53:55.935Z,2.00
2022-08-05T02:54:56.936Z,1.90
2022-08-05T02:56:00.295Z,1.90
2022-08-05T02:56:56.896Z,2.00
2022-08-05T02:58:10.138Z,2.00
2022-08-05T02:58:56.876Z,2.20
2022-08-05T02:59:55.856Z,2.00
2022-08-05T03:00:55.866Z,2.40
2022-08-05T03:01:55.900Z,2.60
2022-08-05T03:02:55.831Z,2.20
2022-08-05T03:04:02.597Z,2.20
2022-08-05T03:04:56.795Z,2.40
2022-08-05T03:06:55.156Z,2.50
2022-08-05T03:06:59.355Z,2.40
2022-08-05T03:08:06.910Z,3.20
2022-08-05T03:08:56.743Z,2.40
2022-08-05T03:09:55.736Z,2.70
2022-08-05T03:11:53.129Z,3.10
2022-08-05T03:11:58.318Z,2.50
2022-08-05T03:13:51.438Z,2.40
2022-08-05T03:14:30.129Z,2.40
2022-08-05T03:15:29.122Z,2.70
2022-08-05T03:16:29.118Z,2.70
2022-08-05T03:17:29.099Z,3.10
2022-08-05T03:18:30.053Z,2.80
2022-08-05T03:19:34.553Z,3.20
2022-08-05T03:20:30.048Z,2.50
2022-08-05T03:21:29.069Z,2.90
2022-08-05T03:22:32.136Z,2.60
2022-08-05T03:23:29.019Z,2.40
2022-08-05T03:24:30.142Z,2.80
2022-08-05T03:25:32.764Z,2.60
2022-08-05T03:26:31.471Z,2.80
2022-08-05T03:27:29.583Z,2.90
2022-08-05T03:28:29.960Z,3.00
2022-08-05T03:29:45.821Z,2.90
2022-08-05T03:30:33.820Z,2.70
2022-08-05T03:31:56.488Z,2.60
2022-08-05T03:32:30.635Z,2.60
2022-08-05T03:33:42.222Z,2.70
2022-08-05T03:34:29.869Z,2.70
2022-08-05T03:35:28.869Z,2.90
2022-08-05T03:36:30.255Z,3.30
2022-08-05T03:37:28.850Z,2.70
2022-08-05T03:38:33.345Z,2.90
2022-08-05T03:39:29.850Z,2.80
2022-08-05T03:40:32.083Z,2.80
2022-08-05T03:41:32.915Z,2.90
2022-08-05T03:42:29.045Z,3.10
2022-08-05T03:44:09.702Z,2.90
2022-08-05T03:44:29.754Z,2.80
2022-08-05T03:45:28.738Z,3.00
2022-08-05T03:46:30.029Z,2.70
2022-08-05T03:47:30.413Z,2.80
2022-08-05T03:48:29.840Z,2.80
2022-08-05T03:49:31.228Z,2.90
2022-08-05T03:50:29.676Z,2.70
2022-08-05T03:52:39.017Z,2.60
2022-08-05T03:52:39.069Z,2.80
2022-08-05T03:55:50.895Z,2.70
2022-08-05T03:55:51.689Z,2.60
2022-08-05T03:56:04.360Z,2.50
2022-08-05T03:56:34.764Z,2.90
2022-08-05T03:57:42.308Z,2.70
2022-08-05T03:58:29.575Z,2.70
2022-08-05T03:59:29.030Z,2.70
2022-08-05T04:00:29.539Z,2.70
2022-08-05T04:01:28.597Z,2.90
2022-08-05T04:02:37.334Z,3.10
2022-08-05T04:03:29.515Z,2.70
2022-08-05T04:04:28.494Z,2.50
2022-08-05T04:05:33.921Z,2.70
2022-08-05T04:06:29.464Z,3.10
2022-08-05T04:07:28.455Z,2.90
2022-08-05T04:08:34.841Z,3.20
2022-08-05T04:09:29.414Z,3.00
2022-08-05T04:10:32.015Z,2.70
2022-08-05T04:11:47.092Z,2.50
2022-08-05T04:12:29.375Z,2.90
2022-08-05T04:13:49.798Z,2.70
2022-08-05T04:14:29.864Z,3.10
2022-08-05T04:15:33.219Z,2.80
2022-08-05T04:16:32.700Z,3.00
2022-08-05T04:17:36.423Z,2.50
2022-08-05T04:18:29.306Z,2.60
2022-08-05T04:19:28.295Z,3.10
2022-08-05T04:20:28.274Z,3.30
2022-08-05T04:22:10.119Z,2.80
2022-08-05T04:22:29.248Z,2.70
2022-08-05T04:24:05.396Z,2.60
2022-08-05T04:24:29.273Z,2.70
2022-08-05T04:25:56.517Z,2.80
2022-08-05T04:26:32.433Z,2.90
2022-08-05T04:27:42.118Z,2.80
2022-08-05T04:28:30.836Z,2.90
2022-08-05T04:29:28.172Z,2.80
2022-08-05T04:30:28.144Z,3.60
2022-08-05T04:31:37.522Z,2.90
2022-08-05T04:32:30.831Z,2.70
2022-08-05T04:33:36.368Z,3.00
2022-08-05T04:34:32.860Z,2.90
2022-08-05T04:36:15.656Z,3.20
2022-08-05T04:36:49.489Z,2.80
2022-08-05T04:38:00.898Z,3.40
2022-08-05T04:38:39.288Z,3.10
2022-08-05T04:39:29.079Z,3.90
2022-08-05T04:40:28.012Z,3.30
2022-08-05T04:41:34.097Z,3.30
2022-08-05T04:42:28.992Z,3.10
2022-08-05T04:43:28.005Z,3.30
2022-08-05T04:44:29.898Z,3.00
2022-08-05T04:45:48.648Z,3.40
2022-08-05T04:46:28.941Z,2.90
2022-08-05T04:47:27.940Z,3.00
2022-08-05T04:48:28.915Z,3.20
2022-08-05T04:49:38.499Z,3.30
2022-08-05T04:50:37.167Z,3.30
2022-08-05T04:51:30.298Z,3.60
2022-08-05T04:52:28.133Z,3.40
2022-08-05T04:53:27.842Z,3.60
2022-08-05T04:54:28.841Z,2.90
2022-08-05T04:56:11.866Z,3.90
2022-08-05T04:56:34.244Z,4.00
2022-08-05T04:57:37.013Z,4.10
2022-08-05T04:58:28.782Z,4.20
2022-08-05T04:59:36.604Z,4.00
2022-08-05T05:00:28.771Z,4.30
2022-08-05T05:01:59.664Z,4.70
2022-08-05T05:02:36.463Z,4.60
2022-08-05T05:03:28.720Z,4.20
2022-08-05T05:04:28.701Z,4.00
2022-08-05T05:05:29.098Z,4.80
2022-08-05T05:06:39.418Z,4.50
2022-08-05T05:07:29.671Z,4.90
2022-08-05T05:08:30.378Z,5.80
2022-08-05T05:09:27.643Z,5.00
2022-08-05T05:10:27.629Z,5.10
2022-08-05T05:11:52.869Z,5.20
2022-08-05T05:12:28.598Z,4.80
2022-08-05T05:13:32.204Z,5.10
2022-08-05T05:14:32.221Z,5.40
2022-08-05T05:15:57.694Z,5.30
2022-08-05T05:16:30.352Z,5.10
2022-08-05T05:17:55.552Z,5.10
2022-08-05T05:18:33.219Z,5.50
2022-08-05T05:19:37.162Z,5.90
2022-08-05T05:20:29.025Z,5.30
2022-08-05T05:21:27.493Z,6.00
2022-08-05T05:22:27.469Z,5.70
2022-08-05T05:23:27.459Z,5.40
2022-08-05T05:24:56.319Z,6.00
2022-08-05T05:25:32.478Z,6.30
2022-08-05T05:26:28.287Z,6.60
2022-08-05T05:27:41.414Z,6.70
2022-08-05T05:28:28.389Z,6.40
2022-08-05T05:30:03.221Z,5.90
2022-08-05T05:30:30.954Z,6.10
2022-08-05T05:31:35.898Z,6.30
2022-08-05T05:32:27.335Z,6.10
2022-08-05T05:33:27.327Z,6.70
2022-08-05T05:34:27.386Z,5.80
2022-08-05T05:35:27.299Z,5.70
2022-08-05T05:36:28.364Z,6.90
2022-08-05T05:37:29.149Z,7.00
2022-08-05T05:38:28.261Z,6.90
2022-08-05T05:39:34.512Z,6.70
2022-08-05T05:40:28.228Z,6.30
2022-08-05T05:41:40.335Z,6.90
2022-08-05T05:42:28.217Z,6.60
2022-08-05T05:43:54.129Z,7.00
2022-08-05T05:44:37.481Z,6.80
2022-08-05T05:45:28.166Z,6.50
2022-08-05T05:46:27.148Z,6.40
2022-08-05T05:47:46.432Z,6.60
2022-08-05T05:48:28.308Z,6.80
2022-08-05T05:49:27.116Z,6.70
2022-08-05T05:50:27.097Z,6.90
2022-08-05T05:51:28.039Z,7.10
2022-08-05T05:52:31.367Z,6.00
2022-08-05T05:53:28.066Z,6.00
2022-08-05T05:54:50.312Z,7.00
2022-08-05T05:55:51.872Z,6.70
2022-08-05T05:56:32.240Z,7.10
2022-08-05T05:57:42.799Z,7.20
2022-08-05T05:58:31.792Z,6.60
2022-08-05T05:59:28.708Z,6.70
2022-08-05T06:00:31.452Z,6.70
2022-08-05T06:01:30.350Z,6.90
2022-08-05T06:02:36.663Z,7.60
2022-08-05T06:03:39.763Z,7.30
2022-08-05T06:04:27.991Z,7.10
2022-08-05T06:05:26.906Z,6.50
2022-08-05T06:06:27.926Z,6.80
2022-08-05T06:07:41.376Z,6.40
2022-08-05T06:08:32.700Z,6.30
2022-08-05T06:09:50.198Z,6.40
2022-08-05T06:10:29.473Z,6.70
2022-08-05T06:11:28.798Z,6.60
2022-08-05T06:12:27.257Z,7.30
2022-08-05T06:13:26.828Z,6.80
2022-08-05T06:14:27.874Z,6.90
2022-08-05T06:16:28.839Z,6.70
2022-08-05T06:16:32.621Z,6.80
2022-08-05T06:17:30.839Z,7.20
2022-08-05T06:18:31.124Z,6.30
2022-08-05T06:19:34.943Z,6.80
2022-08-05T06:20:28.718Z,6.60
2022-08-05T06:21:36.690Z,6.30
2022-08-05T06:22:27.693Z,6.60
2022-08-05T06:23:26.673Z,6.10
2022-08-05T06:24:27.666Z,5.90
2022-08-05T06:26:00.115Z,6.80
2022-08-05T06:26:27.631Z,6.60
2022-08-05T06:28:12.249Z,6.20
2022-08-05T06:28:28.418Z,6.20
2022-08-05T06:29:46.266Z,7.10
2022-08-05T06:30:27.581Z,7.00
2022-08-05T06:31:30.642Z,6.60
2022-08-05T06:32:28.808Z,6.80
2022-08-05T06:33:33.077Z,7.10
2022-08-05T06:34:27.813Z,6.60
2022-08-05T06:36:08.093Z,6.60
2022-08-05T06:36:27.534Z,6.90
2022-08-05T06:37:56.137Z,6.90
2022-08-05T06:38:36.683Z,7.60
2022-08-05T06:39:27.823Z,6.80
2022-08-05T06:40:27.939Z,7.50
2022-08-05T06:41:26.433Z,7.20
2022-08-05T06:42:27.170Z,8.30
2022-08-05T06:43:58.406Z,7.60
2022-08-05T06:44:27.425Z,8.60
2022-08-05T06:45:44.692Z,8.30
2022-08-05T06:46:30.167Z,8.90
2022-08-05T06:47:30.326Z,8.80
2022-08-05T06:48:50.311Z,7.90
2022-08-05T06:50:01.402Z,9.00
2022-08-05T06:50:27.382Z,8.20
2022-08-05T06:51:30.106Z,9.20
2022-08-05T06:52:38.192Z,9.40
2022-08-05T06:53:28.458Z,8.80
2022-08-05T06:54:26.292Z,9.60
2022-08-05T06:55:27.209Z,8.90
2022-08-05T06:56:27.120Z,9.60
2022-08-05T06:58:03.331Z,9.00
2022-08-05T06:58:34.958Z,9.10
2022-08-05T06:59:27.223Z,8.40
2022-08-05T07:00:26.182Z,8.70
2022-08-05T07:01:31.976Z,8.80
2022-08-05T07:02:27.171Z,8.70
2022-08-05T07:03:27.928Z,8.20
2022-08-05T07:04:27.160Z,7.60
2022-08-05T07:05:36.977Z,8.20
2022-08-05T07:06:28.426Z,8.40
2022-08-05T07:07:35.299Z,8.60
2022-08-05T07:08:27.069Z,8.00
2022-08-05T07:09:26.078Z,7.70
2022-08-05T07:10:32.683Z,7.80
2022-08-05T07:11:27.041Z,7.90
2022-08-05T07:12:26.028Z,7.80
2022-08-05T07:13:37.236Z,8.40
2022-08-05T07:14:29.384Z,8.00
2022-08-05T07:15:34.769Z,7.80
2022-08-05T07:17:57.195Z,8.20
2022-08-05T07:18:08.380Z,7.50
2022-08-05T07:18:29.132Z,7.70
2022-08-05T07:20:10.656Z,7.60
2022-08-05T07:20:37.150Z,8.00
2022-08-05T07:21:26.919Z,7.90
2022-08-05T07:22:29.134Z,7.50
2022-08-05T07:23:26.419Z,7.60
2022-08-05T07:24:28.646Z,7.60
2022-08-05T07:25:56.298Z,8.00
2022-08-05T07:26:26.847Z,7.40
2022-08-05T07:27:27.730Z,8.20
2022-08-05T07:28:26.807Z,7.80
2022-08-05T07:30:22.843Z,8.30
2022-08-05T07:30:32.004Z,7.80
2022-08-05T07:31:40.909Z,8.00
2022-08-05T07:32:26.766Z,8.40
2022-08-05T07:33:37.090Z,7.70
2022-08-05T07:34:28.782Z,7.80
2022-08-05T07:36:02.115Z,7.50
2022-08-05T07:36:26.716Z,7.30
2022-08-05T07:37:28.919Z,7.10
2022-08-05T07:38:33.472Z,7.10
2022-08-05T07:40:04.400Z,6.80
2022-08-05T07:40:33.019Z,6.90
2022-08-05T07:42:09.287Z,7.20
2022-08-05T07:42:31.866Z,6.70
2022-08-05T07:43:26.624Z,7.20
2022-08-05T07:44:25.607Z,6.60
2022-08-05T07:45:56.547Z,6.60
2022-08-05T07:46:26.809Z,7.30
2022-08-05T07:47:25.606Z,6.40
2022-08-05T07:49:03.076Z,6.70
2022-08-05T07:49:26.538Z,7.60
2022-08-05T07:50:26.730Z,6.60
2022-08-05T07:51:37.325Z,6.50
2022-08-05T07:52:26.508Z,5.50
2022-08-05T07:53:26.905Z,6.20
2022-08-05T07:54:30.884Z,6.50
2022-08-05T07:56:04.756Z,6.40
2022-08-05T07:56:59.791Z,6.00
2022-08-05T07:57:51.298Z,5.70
2022-08-05T07:58:57.412Z,5.40
2022-08-05T07:59:38.311Z,5.40
2022-08-05T08:00:26.384Z,4.60
2022-08-05T08:01:25.464Z,5.60
2022-08-05T08:02:26.576Z,5.30
2022-08-05T08:03:44.075Z,4.80
2022-08-05T08:04:37.676Z,5.00
2022-08-05T08:05:26.465Z,4.70
2022-08-05T08:06:28.112Z,4.90
2022-08-05T08:07:25.472Z,5.00
2022-08-05T08:08:26.045Z,5.10
2022-08-05T08:09:25.284Z,5.20
2022-08-05T08:10:25.266Z,5.40
2022-08-05T08:11:27.687Z,4.90
2022-08-05T08:12:35.035Z,4.80
2022-08-05T08:13:29.121Z,5.10
2022-08-05T08:14:25.224Z,4.50
2022-08-05T08:16:33.619Z,4.50
2022-08-05T08:16:35.251Z,4.30
2022-08-05T08:17:27.899Z,4.40
2022-08-05T08:18:25.155Z,4.80
2022-08-05T08:20:22.669Z,4.40
2022-08-05T08:20:44.574Z,3.90
2022-08-05T08:21:26.123Z,4.30
2022-08-05T08:22:25.111Z,4.50
2022-08-05T08:24:03.315Z,4.50
2022-08-05T08:24:46.001Z,4.00
2022-08-05T08:25:26.740Z,4.30
2022-08-05T08:26:29.674Z,3.90
2022-08-05T08:27:35.600Z,4.20
2022-08-05T08:28:36.482Z,4.20
2022-08-05T08:30:04.595Z,4.10
2022-08-05T08:30:32.891Z,3.80
2022-08-05T08:31:26.865Z,3.50
2022-08-05T08:32:27.820Z,4.10
2022-08-05T08:33:24.964Z,3.70
2022-08-05T08:34:30.236Z,3.80
2022-08-05T08:35:26.688Z,3.50
2022-08-05T08:36:38.830Z,3.50
2022-08-05T08:37:27.890Z,3.70
2022-08-05T08:38:35.913Z,3.60
2022-08-05T08:39:25.899Z,3.30
2022-08-05T08:40:24.862Z,4.00
2022-08-05T08:41:26.122Z,3.90
2022-08-05T08:42:46.959Z,3.70
2022-08-05T08:45:18.518Z,3.40
2022-08-05T08:45:19.418Z,3.10
2022-08-05T08:45:29.608Z,4.40
2022-08-05T08:46:24.781Z,3.90
2022-08-05T08:48:05.481Z,3.70
2022-08-05T08:49:00.988Z,3.70
2022-08-05T08:50:23.069Z,3.30
2022-08-05T08:50:31.716Z,3.60
2022-08-05T08:52:03.312Z,3.10
2022-08-05T08:52:26.020Z,3.20
2022-08-05T08:53:24.699Z,3.30
2022-08-05T08:54:27.123Z,3.10
2022-08-05T08:56:02.103Z,2.80
2022-08-05T08:56:27.086Z,2.70
2022-08-05T08:57:24.642Z,2.40
2022-08-05T08:58:36.895Z,2.20
2022-08-05T08:59:27.513Z,2.10
2022-08-05T09:00:24.647Z,2.20
2022-08-05T09:01:24.598Z,2.20
2022-08-05T09:02:26.891Z,2.10
2022-08-05T09:03:24.558Z,2.20
2022-08-05T09:04:30.299Z,2.10
2022-08-05T09:05:38.586Z,2.50
2022-08-05T09:06:28.198Z,2.30
2022-08-05T09:07:28.747Z,2.30
2022-08-05T09:08:27.478Z,2.30
2022-08-05T09:09:26.040Z,2.50
2022-08-05T09:10:27.156Z,2.30
2022-08-05T09:11:51.580Z,3.10
2022-08-05T09:12:27.360Z,2.70
2022-08-05T09:13:24.427Z,2.90
2022-08-05T09:14:56.816Z,2.60
2022-08-05T09:15:25.407Z,2.60
2022-08-05T09:16:26.922Z,2.80
2022-08-05T09:17:41.124Z,2.60
2022-08-05T09:18:25.359Z,2.80
2022-08-05T09:19:28.053Z,3.10
2022-08-05T09:20:36.758Z,2.90
2022-08-05T09:22:23.040Z,2.90
2022-08-05T09:22:32.088Z,3.20
2022-08-05T09:23:27.219Z,3.00
2022-08-05T09:24:24.398Z,3.00
2022-08-05T09:26:00.325Z,2.90
2022-08-05T09:26:25.246Z,3.10
2022-08-05T09:28:05.497Z,3.00
2022-08-05T09:28:32.524Z,3.00
2022-08-05T09:29:30.908Z,3.10
2022-08-05T09:30:25.199Z,3.30
2022-08-05T09:32:39.241Z,2.60
2022-08-05T09:32:39.888Z,2.70
2022-08-05T09:33:25.157Z,2.50
2022-08-05T09:34:26.162Z,2.40
2022-08-05T09:35:27.236Z,2.30
2022-08-05T09:36:27.368Z,2.50
2022-08-05T09:38:12.433Z,2.20
2022-08-05T09:38:27.510Z,2.50
2022-08-05T09:39:24.135Z,2.30
2022-08-05T09:40:25.099Z,2.30
2022-08-05T09:41:24.054Z,2.80
2022-08-05T09:42:28.505Z,2.60
2022-08-05T09:43:24.024Z,2.60
2022-08-05T09:44:24.016Z,2.40
2022-08-05T09:46:07.669Z,2.50
2022-08-05T09:46:28.033Z,2.20
2022-08-05T09:47:23.984Z,2.40
2022-08-05T09:48:23.954Z,2.20
2022-08-05T09:49:23.954Z,2.40
2022-08-05T09:50:38.690Z,2.50
2022-08-05T09:51:24.915Z,2.30
2022-08-05T09:52:24.058Z,2.60
2022-08-05T09:53:26.008Z,2.30
2022-08-05T09:54:29.318Z,2.60
2022-08-05T09:55:57.053Z,2.50
2022-08-05T09:56:24.862Z,2.20
2022-08-05T09:57:23.854Z,2.60
2022-08-05T09:58:23.848Z,2.20
2022-08-05T09:59:23.816Z,2.40
2022-08-05T10:00:23.803Z,2.00
2022-08-05T10:01:32.366Z,2.10
2022-08-05T10:02:25.096Z,2.10
2022-08-05T10:03:23.762Z,2.20
2022-08-05T10:04:28.626Z,2.20
2022-08-05T10:05:23.820Z,1.80
2022-08-05T10:06:23.743Z,2.40
2022-08-05T10:08:11.247Z,2.50
2022-08-05T10:08:36.322Z,1.90
2022-08-05T10:09:28.325Z,2.10
2022-08-05T10:10:28.167Z,2.50
2022-08-05T10:11:29.643Z,2.20
2022-08-05T10:12:31.515Z,2.30
2022-08-05T10:13:24.631Z,2.30
2022-08-05T10:14:23.621Z,2.10
2022-08-05T10:15:23.601Z,2.30
2022-08-05T10:16:23.592Z,2.10
2022-08-05T10:17:37.705Z,2.30
2022-08-05T10:18:24.571Z,2.30
2022-08-05T10:20:02.954Z,2.00
2022-08-05T10:20:25.134Z,2.40
2022-08-05T10:21:23.530Z,2.40
2022-08-05T10:22:30.385Z,2.50
2022-08-05T10:23:56.032Z,2.30
2022-08-05T10:24:24.974Z,2.20
2022-08-05T10:25:23.472Z,2.60
2022-08-05T10:26:31.638Z,2.30
2022-08-05T10:27:26.327Z,2.20
2022-08-05T10:28:29.304Z,2.10
2022-08-05T10:29:24.420Z,2.10
2022-08-05T10:31:19.922Z,2.10
2022-08-05T10:32:52.563Z,2.20
2022-08-05T10:32:52.722Z,2.00
2022-08-05T10:33:24.369Z,2.10
2022-08-05T10:34:25.805Z,2.10
2022-08-05T10:35:24.340Z,2.00
2022-08-05T10:36:26.131Z,2.10
2022-08-05T10:37:23.329Z,2.10
2022-08-05T10:38:24.310Z,1.90
2022-08-05T10:39:25.106Z,2.00
2022-08-05T10:40:28.072Z,2.00
2022-08-05T10:41:23.790Z,2.10
2022-08-05T10:42:33.741Z,2.20
2022-08-05T10:43:24.238Z,2.30
2022-08-05T10:44:24.228Z,2.00
2022-08-05T10:45:40.418Z,2.60
2022-08-05T10:46:24.273Z,2.10
2022-08-05T10:47:26.864Z,2.00
2022-08-05T10:48:31.877Z,2.00
2022-08-05T10:49:27.198Z,2.10
2022-08-05T10:50:36.603Z,2.20
2022-08-05T10:51:28.869Z,2.00
2022-08-05T10:52:24.350Z,1.90
2022-08-05T10:53:23.108Z,2.00
2022-08-05T10:54:29.865Z,2.30
2022-08-05T10:55:24.081Z,1.80
2022-08-05T10:56:25.909Z,2.10
2022-08-05T10:57:23.077Z,1.80
2022-08-05T10:58:23.057Z,1.70
2022-08-05T11:00:02.414Z,2.00
2022-08-05T11:00:24.028Z,1.80
2022-08-05T11:01:28.376Z,1.80
2022-08-05T11:02:38.371Z,2.20
2022-08-05T11:03:26.940Z,1.90
2022-08-05T11:04:22.967Z,1.50
2022-08-05T11:05:26.274Z,1.70
2022-08-05T11:06:30.829Z,1.60
2022-08-05T11:07:33.350Z,1.60
2022-08-05T11:08:37.904Z,1.40
2022-08-05T11:09:24.456Z,1.80
2022-08-05T11:10:27.555Z,1.60
2022-08-05T11:11:23.877Z,1.60
2022-08-05T11:12:24.043Z,1.70
2022-08-05T11:13:22.854Z,1.70
2022-08-05T11:14:37.084Z,1.70
2022-08-05T11:15:23.826Z,1.80
2022-08-05T11:16:34.013Z,1.30
2022-08-05T11:17:58.917Z,1.40
2022-08-05T11:18:23.785Z,1.20
2022-08-05T11:20:16.603Z,1.20
2022-08-05T11:20:23.768Z,1.20
2022-08-05T11:21:22.756Z,1.50
2022-08-05T11:22:22.745Z,1.10
2022-08-05T11:23:22.736Z,1.10
2022-08-05T11:24:30.707Z,1.20
2022-08-05T11:26:05.849Z,1.00
2022-08-05T11:26:28.646Z,1.30
2022-08-05T11:27:23.774Z,1.10
2022-08-05T11:28:23.229Z,1.20
2022-08-05T11:29:22.665Z,1.00
2022-08-05T11:30:22.635Z,1.10
2022-08-05T11:31:57.537Z,1.20
2022-08-05T11:32:23.614Z,1.10
2022-08-05T11:33:22.597Z,1.00
2022-08-05T11:34:22.806Z,1.30
2022-08-05T11:35:22.585Z,1.00
2022-08-05T11:36:34.698Z,1.00
2022-08-05T11:38:28.420Z,1.10
2022-08-05T11:38:29.692Z,1.00
2022-08-05T11:39:23.610Z,1.00
2022-08-05T11:40:22.605Z,1.10
2022-08-05T11:41:58.056Z,1.20
2022-08-05T11:42:23.484Z,1.00
2022-08-05T11:44:04.925Z,1.20
2022-08-05T11:44:40.659Z,1.00
2022-08-05T11:46:15.310Z,1.10
2022-08-05T11:46:23.513Z,1.10
2022-08-05T11:47:49.059Z,1.30
2022-08-05T11:48:23.416Z,1.20
2022-08-05T11:49:22.394Z,1.10
2022-08-05T11:50:22.383Z,1.20
2022-08-05T11:51:44.207Z,1.10
2022-08-05T11:52:23.370Z,1.30
2022-08-05T11:53:23.345Z,1.40
2022-08-05T11:54:22.334Z,1.40
2022-08-05T11:55:23.324Z,1.50
2022-08-05T11:56:23.303Z,1.20
2022-08-05T11:57:25.259Z,1.00
2022-08-05T11:58:22.283Z,1.40
2022-08-05T11:59:22.263Z,1.80
2022-08-05T12:00:22.243Z,1.30
2022-08-05T12:01:23.244Z,1.40
2022-08-05T12:02:29.686Z,1.20
2022-08-05T12:03:29.243Z,1.20
2022-08-05T12:04:23.193Z,1.20
2022-08-05T12:05:25.974Z,1.20
2022-08-05T12:06:23.173Z,1.50
2022-08-05T12:08:03.702Z,1.40
2022-08-05T12:08:23.154Z,1.50
2022-08-05T12:09:22.133Z,1.10
2022-08-05T12:10:23.112Z,1.20
2022-08-05T12:11:22.112Z,1.20
2022-08-05T12:12:22.123Z,1.30
2022-08-05T12:13:48.422Z,1.40
2022-08-05T12:14:24.237Z,1.30
2022-08-05T12:15:38.570Z,1.20
2022-08-05T12:16:27.066Z,1.50
2022-08-05T12:18:03.399Z,1.60
2022-08-05T12:18:24.346Z,1.70
2022-08-05T12:20:25.918Z,1.50
2022-08-05T12:20:28.854Z,1.80
2022-08-05T12:21:23.766Z,1.50
2022-08-05T12:22:21.994Z,1.60
2022-08-05T12:23:21.953Z,1.30
2022-08-05T12:24:21.964Z,1.60
2022-08-05T12:25:24.643Z,1.40
2022-08-05T12:26:23.205Z,1.50
2022-08-05T12:27:25.076Z,1.90
2022-08-05T12:28:21.892Z,1.80
2022-08-05T12:29:23.548Z,1.80
2022-08-05T12:30:21.885Z,1.70
2022-08-05T12:31:23.764Z,1.50
2022-08-05T12:32:22.852Z,1.50
2022-08-05T12:33:27.676Z,1.60
2022-08-05T12:34:23.560Z,1.70
2022-08-05T12:35:21.997Z,1.60
2022-08-05T12:36:21.833Z,2.10
2022-08-05T12:37:21.963Z,2.30
2022-08-05T12:38:22.360Z,1.90
2022-08-05T12:39:23.751Z,2.00
2022-08-05T12:40:26.905Z,2.30
2022-08-05T12:41:22.723Z,2.10
2022-08-05T12:42:25.319Z,2.00
2022-08-05T12:43:21.702Z,2.10
2022-08-05T12:44:33.946Z,2.50
2022-08-05T12:45:22.672Z,2.30
2022-08-05T12:46:28.038Z,2.60
2022-08-05T12:47:22.888Z,2.20
2022-08-05T12:48:32.097Z,2.20
2022-08-05T12:49:25.553Z,2.40
2022-08-05T12:50:21.610Z,2.50
2022-08-05T12:52:12.115Z,2.50
2022-08-05T12:52:27.033Z,2.30
2022-08-05T12:53:22.582Z,2.40
2022-08-05T12:54:23.672Z,2.40
2022-08-05T12:55:22.027Z,2.50
2022-08-05T12:56:35.041Z,2.90
2022-08-05T12:57:23.410Z,2.60
2022-08-05T12:58:49.716Z,2.50
2022-08-05T12:59:27.603Z,2.10
2022-08-05T13:02:01.158Z,2.50
2022-08-05T13:02:01.665Z,2.20
2022-08-05T13:02:22.526Z,2.30
2022-08-05T13:03:22.516Z,2.00
2022-08-05T13:04:21.505Z,2.50
2022-08-05T13:05:21.421Z,2.30
2022-08-05T13:06:21.422Z,2.50
2022-08-05T13:07:41.378Z,2.30
2022-08-05T13:08:22.381Z,2.30
2022-08-05T13:09:28.216Z,2.60
2022-08-05T13:10:22.361Z,3.00
2022-08-05T13:11:57.922Z,2.50
2022-08-05T13:12:22.350Z,2.40
2022-08-05T13:14:04.962Z,2.50
2022-08-05T13:14:24.979Z,2.50
2022-08-05T13:15:24.290Z,2.30
2022-08-05T13:16:25.109Z,2.30
2022-08-05T13:17:25.172Z,2.20
2022-08-05T13:18:24.022Z,2.40
2022-08-05T13:19:21.241Z,2.40